Aynor, South Carolina
Current Conditions -  °F | °C
As of 2:15 PM on Thursday 18 Dec 2014 (Local Time) from KHYW Reporting Station
Haze Haze  
Wind Chill: 13°   Ceiling: Unl
Heat Index: 13°   Visibility: 5mi
Dew Point:   Wind: 0mph
Humidity: 41%   Direction: NA
Pressure: 30.09"   Gusts: NA
Location:  34°N, 79.2°W
Report Text: KHYW 181915Z AUTO 00000KT 5SM HZ CLR 13/00 A3009 RMK AO2
Loading
Personal Weather Stations






























Interactive Weather Map New forecast layout! Learn more

10-Day Weather Forecast

Advertisements
Track Severe Weather on mobile